createdAt,value
2023-02-21T00:02:39.310Z,6.00
2023-02-21T00:05:24.505Z,5.90
2023-02-21T00:08:09.775Z,5.80
2023-02-21T00:10:54.926Z,5.80
2023-02-21T00:13:39.819Z,5.70
2023-02-21T00:16:25.045Z,5.50
2023-02-21T00:19:10.210Z,5.50
2023-02-21T00:21:55.502Z,5.30
2023-02-21T00:24:40.500Z,6.00
2023-02-21T00:30:11.846Z,4.90
2023-02-21T00:32:56.999Z,4.90
2023-02-21T00:35:42.171Z,4.90
2023-02-21T00:38:27.593Z,4.80
2023-02-21T00:41:13.407Z,4.90
2023-02-21T00:43:58.612Z,4.40
2023-02-21T00:52:15.140Z,4.50
2023-02-21T00:55:00.248Z,4.40
2023-02-21T00:57:45.217Z,4.30
2023-02-21T01:00:35.895Z,4.30
2023-02-21T01:03:21.586Z,4.20
2023-02-21T01:06:06.876Z,4.00
2023-02-21T01:08:52.070Z,4.00
2023-02-21T01:11:38.156Z,3.90
2023-02-21T01:14:23.714Z,3.90
2023-02-21T01:17:13.466Z,3.80
2023-02-21T01:20:00.009Z,3.90
2023-02-21T01:22:45.594Z,3.90
2023-02-21T01:25:31.210Z,3.90
2023-02-21T01:28:16.523Z,3.90
2023-02-21T01:31:01.932Z,4.00
2023-02-21T01:33:47.277Z,4.10
2023-02-21T01:36:32.482Z,4.00
2023-02-21T01:39:17.651Z,4.10
2023-02-21T01:42:02.954Z,4.10
2023-02-21T01:44:50.976Z,4.20
2023-02-21T01:47:36.123Z,4.10
2023-02-21T01:50:25.688Z,3.90
2023-02-21T01:53:11.070Z,3.50
2023-02-21T01:55:57.727Z,4.10
2023-02-21T01:58:44.166Z,3.30
2023-02-21T02:01:31.263Z,3.60
2023-02-21T02:04:17.945Z,3.90
2023-02-21T02:07:03.248Z,3.70
2023-02-21T02:12:34.176Z,4.30
2023-02-21T02:15:10.759Z,4.50
2023-02-21T02:17:43.539Z,4.60
2023-02-21T02:20:13.112Z,4.70
2023-02-21T02:22:52.046Z,4.80
2023-02-21T02:25:45.289Z,4.90
2023-02-21T02:28:17.941Z,5.00
2023-02-21T02:31:03.697Z,5.10
2023-02-21T02:33:40.951Z,5.00
2023-02-21T02:36:13.663Z,4.80
2023-02-21T02:38:48.876Z,4.60
2023-02-21T02:41:33.741Z,4.50
2023-02-21T02:44:12.713Z,4.60
2023-02-21T02:46:41.127Z,4.50
2023-02-21T02:49:10.778Z,4.40
2023-02-21T02:51:37.472Z,4.60
2023-02-21T02:54:04.298Z,4.70
2023-02-21T02:56:30.867Z,4.80
2023-02-21T02:59:00.341Z,4.80
2023-02-21T03:01:39.319Z,5.00
2023-02-21T03:04:25.389Z,5.00
2023-02-21T03:06:55.024Z,5.00
2023-02-21T03:09:31.735Z,4.90
2023-02-21T03:12:05.276Z,4.90
2023-02-21T03:14:37.630Z,4.90
2023-02-21T03:17:07.392Z,5.00
2023-02-21T03:19:35.716Z,5.00
2023-02-21T03:22:05.567Z,5.10
2023-02-21T03:24:34.114Z,5.20
2023-02-21T03:27:04.050Z,5.00
2023-02-21T03:29:31.489Z,4.90
2023-02-21T03:32:18.334Z,5.00
2023-02-21T03:34:44.945Z,5.00
2023-02-21T03:37:19.252Z,5.10
2023-02-21T03:39:45.889Z,5.00
2023-02-21T03:42:12.498Z,5.10
2023-02-21T03:44:39.056Z,5.10
2023-02-21T03:47:05.648Z,5.20
2023-02-21T03:49:32.238Z,5.10
2023-02-21T03:51:58.790Z,5.20
2023-02-21T03:54:25.509Z,5.30
2023-02-21T03:56:52.088Z,5.30
2023-02-21T03:59:18.709Z,5.30
2023-02-21T04:01:45.349Z,5.30
2023-02-21T04:04:11.936Z,5.20
2023-02-21T04:06:38.525Z,5.20
2023-02-21T04:09:05.142Z,5.40
2023-02-21T04:11:32.159Z,5.30
2023-02-21T04:13:58.781Z,5.20
2023-02-21T04:16:25.538Z,5.20
2023-02-21T04:18:53.115Z,5.10
2023-02-21T04:21:19.701Z,5.20
2023-02-21T04:23:46.343Z,5.10
2023-02-21T04:26:13.095Z,5.10
2023-02-21T04:28:39.735Z,5.20
2023-02-21T04:31:06.398Z,5.50
2023-02-21T04:33:33.122Z,5.30
2023-02-21T04:35:59.734Z,5.30
2023-02-21T04:38:26.291Z,5.50
2023-02-21T04:40:52.880Z,5.40
2023-02-21T04:43:21.124Z,5.50
2023-02-21T04:45:47.884Z,5.70
2023-02-21T04:48:14.548Z,5.60
2023-02-21T04:50:41.142Z,5.60
2023-02-21T04:53:07.776Z,5.70
2023-02-21T04:55:34.362Z,5.60
2023-02-21T04:58:00.984Z,5.70
2023-02-21T05:00:27.569Z,5.60
2023-02-21T05:02:54.179Z,5.60
2023-02-21T05:05:20.904Z,5.60
2023-02-21T05:07:47.588Z,5.60
2023-02-21T05:10:14.971Z,5.60
2023-02-21T05:12:41.907Z,5.50
2023-02-21T05:15:09.090Z,5.70
2023-02-21T05:17:35.661Z,5.70
2023-02-21T05:20:02.331Z,5.70
2023-02-21T05:22:28.974Z,5.50
2023-02-21T05:24:55.623Z,5.60
2023-02-21T05:27:22.297Z,5.60
2023-02-21T05:29:49.554Z,5.70
2023-02-21T05:32:16.764Z,5.80
2023-02-21T05:34:44.645Z,5.90
2023-02-21T05:37:11.622Z,5.80
2023-02-21T05:39:38.244Z,5.80
2023-02-21T05:42:04.808Z,5.60
2023-02-21T05:44:31.359Z,5.60
2023-02-21T05:46:57.900Z,5.50
2023-02-21T05:49:26.196Z,5.40
2023-02-21T05:51:53.943Z,5.70
2023-02-21T05:54:21.330Z,5.60
2023-02-21T05:56:48.727Z,5.40
2023-02-21T05:59:16.860Z,5.50
2023-02-21T06:01:43.940Z,5.50
2023-02-21T06:04:10.468Z,5.30
2023-02-21T06:06:37.434Z,5.60
2023-02-21T06:09:04.677Z,5.50
2023-02-21T06:11:33.333Z,5.30
2023-02-21T06:14:01.055Z,5.00
2023-02-21T06:16:28.906Z,5.00
2023-02-21T06:18:56.021Z,4.70
2023-02-21T06:21:23.108Z,4.50
2023-02-21T06:23:49.805Z,4.40
2023-02-21T06:26:18.417Z,4.40
2023-02-21T06:28:45.188Z,4.30
2023-02-21T06:31:11.776Z,4.20
2023-02-21T06:33:38.431Z,4.20
2023-02-21T06:36:06.121Z,4.10
2023-02-21T06:38:33.469Z,4.10
2023-02-21T06:41:00.255Z,4.00
2023-02-21T06:43:26.903Z,4.20
2023-02-21T06:45:55.046Z,4.40
2023-02-21T06:48:22.443Z,4.70
2023-02-21T06:50:49.088Z,4.70
2023-02-21T06:53:15.657Z,4.80
2023-02-21T06:55:42.192Z,4.80
2023-02-21T06:58:08.879Z,4.80
2023-02-21T07:00:35.677Z,4.80
2023-02-21T07:03:03.075Z,4.90
2023-02-21T07:05:34.477Z,4.80
2023-02-21T07:08:01.985Z,5.10
2023-02-21T07:10:29.444Z,5.20
2023-02-21T07:12:56.140Z,5.30
2023-02-21T07:15:22.741Z,5.40
2023-02-21T07:17:49.315Z,5.10
2023-02-21T07:20:15.974Z,5.20
2023-02-21T07:22:42.594Z,4.90
2023-02-21T07:25:13.241Z,5.30
2023-02-21T07:27:39.786Z,5.10
2023-02-21T07:30:07.764Z,5.50
2023-02-21T07:32:34.429Z,5.80
2023-02-21T07:35:01.117Z,6.00
2023-02-21T07:37:27.681Z,7.10
2023-02-21T07:39:54.275Z,6.20
2023-02-21T07:42:20.824Z,6.50
2023-02-21T07:44:47.933Z,6.30
2023-02-21T07:47:14.621Z,6.30
2023-02-21T07:49:41.418Z,8.00
2023-02-21T07:52:08.118Z,7.90
2023-02-21T07:54:34.773Z,6.00
2023-02-21T07:57:01.356Z,7.00
2023-02-21T07:59:28.040Z,7.10
2023-02-21T08:01:55.643Z,6.50
2023-02-21T08:04:24.029Z,8.40
2023-02-21T08:06:50.728Z,7.10
2023-02-21T08:09:17.477Z,9.00
2023-02-21T08:11:44.193Z,7.60
2023-02-21T08:14:10.793Z,7.50
2023-02-21T08:16:37.523Z,7.30
2023-02-21T08:19:05.579Z,9.00
2023-02-21T08:21:32.191Z,7.50
2023-02-21T08:23:58.958Z,7.60
2023-02-21T08:26:25.524Z,8.90
2023-02-21T08:28:52.167Z,7.70
2023-02-21T08:31:19.005Z,7.50
2023-02-21T08:33:45.730Z,7.60
2023-02-21T08:36:12.492Z,7.60
2023-02-21T08:38:39.797Z,8.00
2023-02-21T08:41:06.466Z,7.80
2023-02-21T08:43:33.034Z,7.90
2023-02-21T08:45:59.629Z,8.20
2023-02-21T08:48:26.305Z,7.90
2023-02-21T08:50:53.765Z,7.90
2023-02-21T08:53:20.376Z,9.60
2023-02-21T08:55:47.045Z,8.20
2023-02-21T08:58:13.762Z,9.40
2023-02-21T09:00:40.459Z,8.30
2023-02-21T09:03:07.312Z,9.20
2023-02-21T09:05:33.950Z,8.40
2023-02-21T09:08:01.516Z,9.40
2023-02-21T09:10:29.294Z,8.50
2023-02-21T09:12:58.858Z,8.90
2023-02-21T09:15:25.763Z,9.10
2023-02-21T09:17:54.524Z,9.20
2023-02-21T09:20:25.254Z,9.10
2023-02-21T09:22:51.941Z,9.10
2023-02-21T09:25:19.832Z,9.10
2023-02-21T09:27:46.475Z,8.60
2023-02-21T09:30:14.980Z,10.10
2023-02-21T09:32:42.028Z,9.20
2023-02-21T09:35:09.766Z,9.50
2023-02-21T09:37:40.457Z,9.60
2023-02-21T09:40:27.470Z,9.70
2023-02-21T09:42:55.070Z,9.70
2023-02-21T09:45:22.407Z,9.60
2023-02-21T09:47:51.229Z,9.50
2023-02-21T09:50:20.646Z,9.10
2023-02-21T09:52:47.446Z,9.40
2023-02-21T09:55:32.104Z,10.30
2023-02-21T09:57:59.163Z,10.30
2023-02-21T10:00:32.882Z,10.00
2023-02-21T10:03:06.906Z,10.20
2023-02-21T10:05:38.955Z,10.10
2023-02-21T10:08:08.588Z,10.10
2023-02-21T10:10:45.668Z,10.30
2023-02-21T10:13:24.420Z,10.30
2023-02-21T10:16:03.195Z,10.30
2023-02-21T10:18:48.588Z,10.70
2023-02-21T10:21:24.718Z,10.70
2023-02-21T10:23:52.304Z,10.80
2023-02-21T10:26:21.018Z,10.60
2023-02-21T10:28:47.807Z,10.90
2023-02-21T10:31:18.602Z,10.90
2023-02-21T10:33:45.352Z,11.20
2023-02-21T10:36:13.205Z,11.20
2023-02-21T10:38:41.029Z,12.20
2023-02-21T10:41:07.948Z,13.20
2023-02-21T10:43:36.580Z,13.20
2023-02-21T10:46:03.171Z,12.90
2023-02-21T10:48:34.741Z,12.40
2023-02-21T10:51:09.479Z,12.60
2023-02-21T10:53:37.414Z,12.30
2023-02-21T10:56:18.498Z,11.70
2023-02-21T10:58:50.209Z,12.40
2023-02-21T11:01:22.018Z,12.70
2023-02-21T11:03:50.049Z,13.00
2023-02-21T11:06:22.259Z,13.50
2023-02-21T11:08:48.898Z,14.00
2023-02-21T11:11:15.776Z,14.40
2023-02-21T11:13:42.585Z,14.60
2023-02-21T11:16:09.303Z,14.80
2023-02-21T11:18:36.016Z,14.70
2023-02-21T11:21:18.934Z,14.80
2023-02-21T11:23:53.104Z,15.20
2023-02-21T11:26:19.809Z,14.00
2023-02-21T11:28:47.466Z,14.90
2023-02-21T11:31:22.522Z,16.80
2023-02-21T11:33:57.354Z,15.70
2023-02-21T11:39:00.241Z,16.90
2023-02-21T11:41:34.742Z,17.20
2023-02-21T11:44:01.374Z,16.80
2023-02-21T11:46:28.003Z,16.20
2023-02-21T11:49:15.245Z,16.90
2023-02-21T11:51:53.955Z,17.20
2023-02-21T11:54:24.170Z,18.20
2023-02-21T11:57:03.945Z,19.10
2023-02-21T11:59:56.753Z,16.60
2023-02-21T12:02:29.511Z,16.20
2023-02-21T12:05:02.362Z,15.50
2023-02-21T12:07:37.381Z,15.30
2023-02-21T12:10:30.462Z,15.50
2023-02-21T12:13:09.245Z,15.20
2023-02-21T12:15:44.664Z,15.00
2023-02-21T12:18:14.629Z,14.80
2023-02-21T12:20:55.135Z,14.30
2023-02-21T12:23:28.018Z,14.30
2023-02-21T12:26:04.233Z,14.50
2023-02-21T12:28:46.126Z,14.40
2023-02-21T12:31:19.353Z,14.20
2023-02-21T12:33:57.306Z,14.50
2023-02-21T12:36:42.191Z,14.40
2023-02-21T12:39:18.012Z,14.50
2023-02-21T12:41:55.361Z,14.70
2023-02-21T12:44:24.117Z,14.50
2023-02-21T12:46:56.910Z,14.30
2023-02-21T12:49:50.054Z,14.30
2023-02-21T12:52:18.924Z,14.30
2023-02-21T12:54:51.605Z,14.40
2023-02-21T12:57:21.944Z,14.40
2023-02-21T13:00:17.258Z,14.60
2023-02-21T13:02:47.038Z,14.10
2023-02-21T13:05:19.402Z,13.90
2023-02-21T13:07:45.960Z,13.90
2023-02-21T13:10:20.221Z,13.50
2023-02-21T13:13:10.026Z,14.10
2023-02-21T13:15:37.163Z,14.20
2023-02-21T13:18:16.451Z,14.20
2023-02-21T13:20:53.499Z,14.10
2023-02-21T13:23:39.038Z,14.00
2023-02-21T13:26:26.226Z,13.70
2023-02-21T13:28:53.930Z,13.80
2023-02-21T13:31:22.043Z,14.40
2023-02-21T13:33:50.215Z,14.50
2023-02-21T13:36:35.657Z,14.30
2023-02-21T13:39:21.033Z,14.90
2023-02-21T13:41:57.861Z,15.10
2023-02-21T13:44:33.129Z,15.10
2023-02-21T13:47:01.837Z,14.20
2023-02-21T13:49:37.521Z,13.90
2023-02-21T13:52:19.496Z,13.80
2023-02-21T13:55:04.917Z,13.60
2023-02-21T13:57:32.878Z,15.10
2023-02-21T13:59:59.458Z,15.50
2023-02-21T14:02:32.989Z,16.20
2023-02-21T14:05:01.338Z,15.70
2023-02-21T14:07:42.391Z,13.70
2023-02-21T14:10:23.026Z,14.50
2023-02-21T14:12:57.462Z,14.40
2023-02-21T14:15:35.264Z,18.40
2023-02-21T14:18:01.916Z,19.30
2023-02-21T14:20:28.594Z,20.40
2023-02-21T14:22:57.964Z,20.50
2023-02-21T14:27:53.897Z,16.30
2023-02-21T14:32:49.939Z,15.90
2023-02-21T14:35:16.532Z,16.00
2023-02-21T14:37:45.328Z,17.50
2023-02-21T14:40:11.979Z,15.50
2023-02-21T14:45:11.765Z,15.30
2023-02-21T14:52:35.386Z,17.30
2023-02-21T14:55:14.821Z,16.30
2023-02-21T14:57:53.815Z,15.90
2023-02-21T15:00:27.041Z,14.80
2023-02-21T15:03:12.522Z,14.80
2023-02-21T15:05:42.271Z,14.30
2023-02-21T15:08:08.935Z,14.50
2023-02-21T15:10:42.923Z,13.80
2023-02-21T15:15:40.915Z,13.30
2023-02-21T15:18:09.482Z,13.20
2023-02-21T15:20:37.757Z,13.10
2023-02-21T15:23:16.085Z,13.20
2023-02-21T15:25:43.547Z,13.20
2023-02-21T15:28:21.371Z,13.40
2023-02-21T15:30:59.855Z,13.40
2023-02-21T15:33:28.095Z,13.40
2023-02-21T15:36:00.843Z,14.40
2023-02-21T15:38:27.418Z,13.40
2023-02-21T15:40:55.820Z,13.20
2023-02-21T15:43:42.657Z,13.20
2023-02-21T15:46:12.707Z,13.30
2023-02-21T15:48:39.470Z,13.10
2023-02-21T15:51:08.021Z,13.00
2023-02-21T15:53:34.654Z,12.70
2023-02-21T15:56:18.630Z,13.40
2023-02-21T15:59:04.206Z,13.10
2023-02-21T16:01:30.811Z,12.90
2023-02-21T16:04:14.189Z,12.80
2023-02-21T16:06:45.883Z,12.70
2023-02-21T16:09:15.522Z,12.90
2023-02-21T16:11:42.100Z,12.70
2023-02-21T16:14:35.080Z,12.60
2023-02-21T16:17:07.863Z,12.70
2023-02-21T16:19:34.554Z,12.60
2023-02-21T16:22:43.107Z,13.00
2023-02-21T16:25:14.223Z,12.40
2023-02-21T16:27:42.379Z,12.00
2023-02-21T16:30:14.238Z,10.70
2023-02-21T16:32:43.684Z,11.90
2023-02-21T16:35:14.985Z,11.40
2023-02-21T16:37:41.644Z,11.70
2023-02-21T16:40:15.838Z,10.90
2023-02-21T16:42:42.514Z,11.20
2023-02-21T16:45:09.250Z,10.60
2023-02-21T16:47:35.835Z,11.00
2023-02-21T16:50:02.555Z,11.50
2023-02-21T16:52:29.141Z,11.30
2023-02-21T16:54:55.853Z,10.50
2023-02-21T16:57:22.522Z,10.40
2023-02-21T16:59:49.174Z,10.40
2023-02-21T17:02:15.895Z,9.10
2023-02-21T17:04:42.550Z,10.10
2023-02-21T17:07:11.026Z,10.10
2023-02-21T17:09:41.814Z,10.00
2023-02-21T17:12:08.616Z,9.80
2023-02-21T17:14:35.354Z,8.60
2023-02-21T17:17:02.021Z,9.60
2023-02-21T17:19:28.647Z,9.60
2023-02-21T17:21:58.138Z,9.10
2023-02-21T17:24:24.788Z,9.20
2023-02-21T17:26:54.513Z,9.20
2023-02-21T17:29:21.291Z,9.00
2023-02-21T17:31:51.540Z,8.30
2023-02-21T17:34:18.152Z,8.00
2023-02-21T17:36:44.768Z,7.70
2023-02-21T17:39:11.427Z,7.90
2023-02-21T17:41:44.601Z,8.00
2023-02-21T17:44:11.231Z,8.20
2023-02-21T17:46:37.984Z,7.80
2023-02-21T17:49:04.677Z,8.30
2023-02-21T17:51:31.402Z,8.10
2023-02-21T17:53:57.995Z,9.50
2023-02-21T17:56:24.804Z,7.60
2023-02-21T17:58:51.589Z,7.50
2023-02-21T18:01:19.055Z,7.50
2023-02-21T18:03:47.321Z,7.10
2023-02-21T18:06:14.560Z,7.60
2023-02-21T18:08:44.779Z,7.70
2023-02-21T18:11:11.994Z,7.40
2023-02-21T18:13:38.566Z,8.10
2023-02-21T18:16:05.478Z,7.60
2023-02-21T18:18:32.585Z,7.60
2023-02-21T18:20:59.784Z,7.50
2023-02-21T18:23:26.662Z,7.30
2023-02-21T18:25:53.300Z,7.20
2023-02-21T18:28:19.910Z,6.80
2023-02-21T18:30:47.573Z,7.30
2023-02-21T18:33:14.330Z,7.30
2023-02-21T18:38:07.918Z,6.80
2023-02-21T18:40:34.495Z,6.80
2023-02-21T18:43:01.779Z,6.90
2023-02-21T18:45:28.421Z,6.80
2023-02-21T18:47:55.021Z,6.70
2023-02-21T18:50:21.681Z,7.00
2023-02-21T18:55:15.336Z,6.60
2023-02-21T18:57:41.999Z,7.80
2023-02-21T19:00:09.939Z,6.10
2023-02-21T19:02:36.550Z,6.20
2023-02-21T19:05:03.220Z,6.30
2023-02-21T19:07:31.967Z,6.20
2023-02-21T19:09:58.529Z,6.20
2023-02-21T19:12:25.179Z,6.90
2023-02-21T19:14:51.754Z,5.90
2023-02-21T19:17:18.393Z,7.70
2023-02-21T19:19:44.933Z,7.30
2023-02-21T19:22:11.611Z,5.60
2023-02-21T19:24:38.475Z,5.90
2023-02-21T19:27:05.121Z,5.90
2023-02-21T19:29:31.732Z,5.80
2023-02-21T19:31:58.439Z,6.70
2023-02-21T19:34:25.176Z,6.00
2023-02-21T19:36:51.759Z,5.80
2023-02-21T19:39:18.748Z,5.60
2023-02-21T19:41:45.354Z,6.90
2023-02-21T19:44:12.270Z,5.20
2023-02-21T19:46:38.914Z,5.10
2023-02-21T19:49:17.459Z,5.30
2023-02-21T19:51:48.148Z,5.20
2023-02-21T19:56:41.761Z,5.80
2023-02-21T19:59:08.438Z,5.60
2023-02-21T20:01:35.138Z,4.90
2023-02-21T20:04:02.166Z,5.30
2023-02-21T20:06:28.999Z,4.90
2023-02-21T20:08:55.959Z,5.50
2023-02-21T20:11:23.497Z,5.50
2023-02-21T20:13:50.053Z,5.50
2023-02-21T20:16:19.376Z,5.50
2023-02-21T20:18:46.771Z,5.50
2023-02-21T20:21:30.447Z,5.60
2023-02-21T20:23:57.997Z,5.60
2023-02-21T20:26:24.794Z,5.50
2023-02-21T20:28:52.385Z,5.30
2023-02-21T20:31:20.746Z,5.30
2023-02-21T20:33:48.050Z,6.40
2023-02-21T20:36:15.492Z,3.70
2023-02-21T20:38:45.030Z,4.80
2023-02-21T20:43:50.328Z,5.00
2023-02-21T20:46:21.556Z,4.70
2023-02-21T20:51:16.275Z,4.80
2023-02-21T20:53:46.608Z,4.70
2023-02-21T20:56:15.294Z,5.20
2023-02-21T20:58:42.437Z,4.80
2023-02-21T21:01:13.168Z,4.70
2023-02-21T21:03:40.240Z,4.40
2023-02-21T21:06:12.903Z,4.60
2023-02-21T21:08:39.546Z,5.00
2023-02-21T21:11:08.779Z,4.70
2023-02-21T21:13:36.533Z,4.40
2023-02-21T21:16:05.088Z,4.40
2023-02-21T21:18:31.779Z,5.30
2023-02-21T21:20:58.473Z,3.90
2023-02-21T21:23:25.927Z,4.10
2023-02-21T21:25:52.543Z,4.20
2023-02-21T21:28:19.208Z,4.20
2023-02-21T21:30:46.139Z,3.50
2023-02-21T21:33:12.804Z,4.10
2023-02-21T21:35:39.421Z,4.10
2023-02-21T21:38:07.463Z,4.00
2023-02-21T21:40:34.103Z,4.20
2023-02-21T21:43:02.541Z,3.80
2023-02-21T21:45:29.192Z,4.20
2023-02-21T21:47:58.535Z,3.90
2023-02-21T21:50:25.798Z,3.50
2023-02-21T21:55:21.269Z,3.80
2023-02-21T21:57:53.333Z,3.80
2023-02-21T22:00:24.020Z,3.90
2023-02-21T22:02:51.584Z,3.90
2023-02-21T22:05:18.327Z,3.60
2023-02-21T22:07:44.923Z,3.60
2023-02-21T22:10:11.633Z,3.70
2023-02-21T22:12:38.960Z,3.60
2023-02-21T22:22:15.069Z,3.60
2023-02-21T22:24:55.201Z,3.30
